aviador You're here:

KRST Decoded Metar

ROCHESTER in MN, USA
Report Time2017-07-22 23:54:00
UTC Time2017-07-23 00:47:30
Flight Rules vfr VFR
Wind280° at 05 kt
W.Decomp.*RWY 31: 4.3 kt HW 2.6 kt LCW
RWY 20: 1.0 kt HW 4.9 kt RCW
W.Rank280° ranks 11
Current wind is below 280° avg. (9.9)
Visibility9999 m
Phenomena:N/A
Clouds:N/A
Expected CloudBase > 2,000 ft AGL from Temp-Dew spread
CeilingNone
Temp27°C (ISA +15)
Dew Point22°C (74% RH)
Heat Index29.2°C
QNH1010 hPa
Density Alt3,461 ft
Elevation1,322 ft
Report Wrong Elevation
Raw Report
KRST 222354Z 28005KT 10SM CLR 27/22 A2984 RMK AO2 SLP098 T02670222
10294 20239 56003=

Extra information for KRST:More info

Metar Taf Metar & Taf Last 4 Metars F.Rules Stats Wind Profile Meteogram Temp Stats Airport Information Weather charts Add Link Nearby VenuesMetar ALERT Operation Metar Decoded Social comments

AIRNAV info for KRST